createdAt,value
2019-04-20T00:00:44.347Z,31.08
2019-04-20T00:01:29.252Z,31.11
2019-04-20T00:02:13.742Z,31.08
2019-04-20T00:02:51.125Z,31.17
2019-04-20T00:03:30.914Z,31.19
2019-04-20T00:04:05.392Z,31.22
2019-04-20T00:04:45.221Z,31.21
2019-04-20T00:05:23.304Z,31.21
2019-04-20T00:06:01.504Z,31.27
2019-04-20T00:06:46.260Z,31.29
2019-04-20T00:07:24.585Z,31.31
2019-04-20T00:08:02.236Z,31.31
2019-04-20T00:08:42.668Z,31.29
2019-04-20T00:09:24.681Z,31.33
2019-04-20T00:10:09.608Z,31.32
2019-04-20T00:10:47.369Z,31.33
2019-04-20T00:11:26.300Z,31.32
2019-04-20T00:12:07.070Z,31.31
2019-04-20T00:12:55.639Z,31.28
2019-04-20T00:13:32.107Z,31.32
2019-04-20T00:14:05.609Z,31.32
2019-04-20T00:14:41.303Z,31.33
2019-04-20T00:15:19.731Z,31.33
2019-04-20T00:15:57.864Z,31.35
2019-04-20T00:16:36.144Z,31.36
2019-04-20T00:17:14.118Z,31.38
2019-04-20T00:17:58.970Z,31.39
2019-04-20T00:18:43.055Z,31.42
2019-04-20T00:19:22.524Z,31.46
2019-04-20T00:19:57.797Z,31.52
2019-04-20T00:20:38.380Z,31.55
2019-04-20T00:21:33.902Z,31.60
2019-04-20T00:22:24.617Z,31.69
2019-04-20T00:23:07.871Z,31.72
2019-04-20T00:23:50.269Z,31.74
2019-04-20T00:25:00.471Z,31.74
2019-04-20T00:26:02.864Z,31.74
2019-04-20T00:27:08.542Z,31.71
2019-04-20T00:27:38.931Z,31.66
2019-04-20T00:28:24.157Z,31.65
2019-04-20T00:29:07.105Z,31.65
2019-04-20T00:29:45.331Z,31.63
2019-04-20T00:30:28.762Z,31.63
2019-04-20T00:31:05.541Z,31.63
2019-04-20T00:31:43.054Z,31.64
2019-04-20T00:32:18.866Z,31.65
2019-04-20T00:32:58.538Z,31.71
2019-04-20T00:33:40.985Z,31.89
2019-04-20T00:34:18.348Z,32.03
2019-04-20T00:34:50.658Z,32.13
2019-04-20T00:35:29.332Z,32.09
2019-04-20T00:36:08.964Z,32.06
2019-04-20T00:36:47.455Z,32.04
2019-04-20T00:37:25.482Z,32.04
2019-04-20T00:38:05.649Z,32.03
2019-04-20T00:38:50.889Z,32.03
2019-04-20T00:39:23.795Z,32.07
2019-04-20T00:40:01.856Z,32.10
2019-04-20T00:40:39.783Z,32.22
2019-04-20T00:41:19.428Z,32.34
2019-04-20T00:42:03.569Z,32.46
2019-04-20T00:42:45.202Z,32.62
2019-04-20T00:43:21.045Z,32.73
2019-04-20T00:44:06.901Z,32.86
2019-04-20T00:44:45.484Z,32.95
2019-04-20T00:45:27.470Z,33.03
2019-04-20T00:46:08.780Z,33.12
2019-04-20T00:46:58.759Z,33.13
2019-04-20T00:47:38.428Z,33.19
2019-04-20T00:48:19.152Z,33.25
2019-04-20T00:48:57.237Z,33.28
2019-04-20T00:49:45.904Z,33.34
2019-04-20T00:50:28.284Z,33.40
2019-04-20T00:51:06.935Z,33.45
2019-04-20T00:51:50.772Z,33.54
2019-04-20T00:52:42.072Z,33.61
2019-04-20T00:53:06.833Z,33.68
2019-04-20T00:53:39.717Z,33.75
2019-04-20T00:54:16.015Z,33.79
2019-04-20T00:54:53.985Z,33.84
2019-04-20T00:55:36.071Z,33.84
2019-04-20T00:56:14.167Z,33.86
2019-04-20T00:57:05.755Z,33.84
2019-04-20T00:57:41.781Z,33.87
2019-04-20T00:58:20.082Z,33.87
2019-04-20T00:59:06.153Z,33.87
2019-04-20T00:59:51.872Z,33.90
2019-04-20T01:00:27.332Z,33.93
2019-04-20T01:01:17.129Z,33.97
2019-04-20T01:01:51.947Z,34.00
2019-04-20T01:02:26.168Z,34.06
2019-04-20T01:03:10.687Z,34.11
2019-04-20T01:03:48.649Z,34.14
2019-04-20T01:04:34.585Z,34.20
2019-04-20T01:05:10.975Z,34.24
2019-04-20T01:06:11.081Z,34.29
2019-04-20T01:07:01.645Z,34.33
2019-04-20T01:07:52.049Z,34.43
2019-04-20T01:08:44.609Z,34.53
2019-04-20T01:09:43.752Z,34.62
2019-04-20T01:10:23.749Z,34.71
2019-04-20T01:11:02.651Z,34.79
2019-04-20T01:11:45.477Z,34.83
2019-04-20T01:12:28.020Z,34.88
2019-04-20T01:13:11.069Z,34.92
2019-04-20T01:13:52.037Z,34.94
2019-04-20T01:14:36.294Z,34.99
2019-04-20T01:15:16.655Z,35.02
2019-04-20T01:15:57.356Z,35.04
2019-04-20T01:16:45.211Z,35.09
2019-04-20T01:17:15.777Z,35.13
2019-04-20T01:17:53.756Z,35.19
2019-04-20T01:18:31.753Z,35.24
2019-04-20T01:19:10.856Z,35.29
2019-04-20T01:19:52.603Z,35.31
2019-04-20T01:20:29.694Z,35.35
2019-04-20T01:21:14.052Z,35.37
2019-04-20T01:21:58.197Z,35.43
2019-04-20T01:22:40.283Z,35.44
2019-04-20T01:23:17.192Z,35.47
2019-04-20T01:23:58.578Z,35.49
2019-04-20T01:24:39.882Z,35.51
2019-04-20T01:25:22.129Z,35.56
2019-04-20T01:26:01.179Z,35.58
2019-04-20T01:26:41.900Z,35.64
2019-04-20T01:27:29.882Z,35.68
2019-04-20T01:28:28.772Z,35.74
2019-04-20T01:28:46.377Z,35.76
2019-04-20T01:29:26.355Z,35.82
2019-04-20T01:30:07.485Z,35.87
2019-04-20T01:30:43.149Z,35.91
2019-04-20T01:31:27.282Z,35.98
2019-04-20T01:32:10.558Z,36.03
2019-04-20T01:32:57.606Z,36.07
2019-04-20T01:33:34.305Z,36.13
2019-04-20T01:34:06.179Z,36.16
2019-04-20T01:34:45.913Z,36.22
2019-04-20T01:35:35.538Z,36.26
2019-04-20T01:36:19.582Z,36.33
2019-04-20T01:36:55.702Z,36.42
2019-04-20T01:37:35.440Z,36.47
2019-04-20T01:38:16.626Z,36.53
2019-04-20T01:38:56.414Z,36.60
2019-04-20T01:39:28.485Z,36.66
2019-04-20T01:40:04.536Z,36.71
2019-04-20T01:40:42.129Z,36.65
2019-04-20T01:41:22.401Z,36.59
2019-04-20T01:42:02.388Z,36.66
2019-04-20T01:42:40.407Z,36.71
2019-04-20T01:43:18.503Z,36.61
2019-04-20T01:43:56.409Z,36.47
2019-04-20T01:44:41.237Z,36.37
2019-04-20T01:45:21.445Z,36.45
2019-04-20T01:46:03.301Z,36.57
2019-04-20T01:46:39.190Z,36.56
2019-04-20T01:47:19.073Z,36.48
2019-04-20T01:47:59.459Z,36.45
2019-04-20T01:48:39.951Z,36.55
2019-04-20T01:49:23.858Z,36.62
2019-04-20T01:50:08.483Z,36.67
2019-04-20T01:50:49.963Z,36.75
2019-04-20T01:51:27.155Z,36.82
2019-04-20T01:52:10.953Z,36.91
2019-04-20T01:52:56.525Z,36.98
2019-04-20T01:53:44.228Z,37.05
2019-04-20T01:54:27.588Z,37.08
2019-04-20T01:55:28.887Z,37.05
2019-04-20T01:56:08.303Z,37.10
2019-04-20T01:56:43.430Z,37.11
2019-04-20T01:57:32.965Z,37.15
2019-04-20T01:58:35.195Z,37.19
2019-04-20T01:59:33.433Z,37.14
2019-04-20T02:00:35.216Z,37.20
2019-04-20T02:01:42.448Z,37.22
2019-04-20T02:02:50.332Z,37.25
2019-04-20T02:04:06.791Z,37.29
2019-04-20T02:04:52.083Z,37.32
2019-04-20T02:05:32.711Z,37.34
2019-04-20T02:06:12.985Z,37.40
2019-04-20T02:06:53.938Z,37.46
2019-04-20T02:07:36.715Z,37.51
2019-04-20T02:08:14.656Z,37.55
2019-04-20T02:08:58.232Z,37.54
2019-04-20T02:09:34.489Z,37.58
2019-04-20T02:10:15.127Z,37.66
2019-04-20T02:10:57.431Z,37.71
2019-04-20T02:11:38.394Z,37.76
2019-04-20T02:12:19.098Z,37.82
2019-04-20T02:12:59.812Z,37.85
2019-04-20T02:13:44.453Z,37.89
2019-04-20T02:14:30.672Z,37.93
2019-04-20T02:15:04.315Z,37.95
2019-04-20T02:15:45.114Z,37.95
2019-04-20T02:16:28.827Z,37.99
2019-04-20T02:17:11.722Z,38.03
2019-04-20T02:17:46.605Z,38.07
2019-04-20T02:18:35.089Z,38.12
2019-04-20T02:19:13.886Z,38.16
2019-04-20T02:19:59.843Z,38.16
2019-04-20T02:20:41.789Z,38.21
2019-04-20T02:21:21.560Z,38.25
2019-04-20T02:21:55.696Z,38.25
2019-04-20T02:22:42.164Z,38.25
2019-04-20T02:23:14.548Z,38.25
2019-04-20T02:23:49.973Z,38.28
2019-04-20T02:24:23.733Z,38.30
2019-04-20T02:25:05.829Z,38.28
2019-04-20T02:25:44.015Z,38.26
2019-04-20T02:26:21.884Z,38.25
2019-04-20T02:26:59.948Z,38.31
2019-04-20T02:27:45.403Z,38.33
2019-04-20T02:28:38.273Z,38.37
2019-04-20T02:29:37.559Z,38.38
2019-04-20T02:29:58.274Z,38.35
2019-04-20T02:31:45.265Z,38.37
2019-04-20T02:32:17.197Z,38.41
2019-04-20T02:32:55.629Z,38.44
2019-04-20T02:33:47.422Z,38.44
2019-04-20T02:34:24.088Z,38.44
2019-04-20T02:35:14.150Z,38.47
2019-04-20T02:36:29.982Z,38.51
2019-04-20T02:36:59.687Z,38.52
2019-04-20T02:37:56.745Z,38.53
2019-04-20T02:39:37.598Z,38.61
2019-04-20T02:40:19.375Z,38.65
2019-04-20T02:41:37.663Z,38.78
2019-04-20T02:43:03.695Z,38.87
2019-04-20T02:43:46.825Z,38.83
2019-04-20T02:44:27.919Z,38.84
2019-04-20T02:45:00.836Z,38.82
2019-04-20T02:46:07.117Z,38.76
2019-04-20T02:47:43.620Z,38.74
2019-04-20T02:48:08.104Z,38.75
2019-04-20T02:49:06.058Z,38.75
2019-04-20T02:49:36.005Z,38.75
2019-04-20T02:50:59.699Z,38.74
2019-04-20T02:52:13.485Z,38.77
2019-04-20T02:52:55.947Z,38.79
2019-04-20T02:53:41.194Z,38.80
2019-04-20T02:55:01.759Z,38.76
2019-04-20T02:58:15.279Z,38.85
2019-04-20T02:59:14.761Z,38.88
2019-04-20T03:00:12.411Z,38.89
2019-04-20T03:00:52.612Z,38.92
2019-04-20T03:01:51.849Z,38.90
2019-04-20T03:02:18.182Z,38.92
2019-04-20T03:02:56.106Z,38.85
2019-04-20T03:03:32.777Z,38.90
2019-04-20T03:04:16.269Z,38.93
2019-04-20T03:05:00.065Z,38.97
2019-04-20T03:05:40.632Z,38.97
2019-04-20T03:06:19.587Z,38.96
2019-04-20T03:07:04.152Z,38.97
2019-04-20T03:07:50.402Z,39.00
2019-04-20T03:08:26.241Z,39.00
2019-04-20T03:09:09.160Z,39.04
2019-04-20T03:09:44.258Z,39.07
2019-04-20T03:10:34.226Z,39.09
2019-04-20T03:11:17.765Z,39.11
2019-04-20T03:12:00.945Z,39.15
2019-04-20T03:12:34.461Z,39.16
2019-04-20T03:13:14.405Z,39.18
2019-04-20T03:13:55.642Z,39.23
2019-04-20T03:14:31.939Z,39.25
2019-04-20T03:15:09.583Z,39.25
2019-04-20T03:15:57.506Z,39.24
2019-04-20T03:16:33.130Z,39.17
2019-04-20T03:17:21.367Z,39.18
2019-04-20T03:17:58.879Z,39.13
2019-04-20T03:18:37.307Z,39.07
2019-04-20T03:19:14.125Z,39.08
2019-04-20T03:19:52.492Z,39.06
2019-04-20T03:20:43.378Z,39.04
2019-04-20T03:21:26.973Z,39.01
2019-04-20T03:22:04.076Z,38.97
2019-04-20T03:23:07.353Z,38.99
2019-04-20T03:23:31.037Z,38.97
2019-04-20T03:24:14.401Z,38.91
2019-04-20T03:24:48.565Z,38.89
2019-04-20T03:25:45.493Z,38.87
2019-04-20T03:26:29.792Z,38.88
2019-04-20T03:27:29.478Z,38.89
2019-04-20T03:28:15.424Z,38.86
2019-04-20T03:28:56.635Z,38.79
2019-04-20T03:30:43.947Z,38.82
2019-04-20T03:31:29.472Z,38.83
2019-04-20T03:33:34.541Z,38.94
2019-04-20T03:35:22.619Z,38.91
2019-04-20T03:36:11.894Z,38.84
2019-04-20T03:36:49.753Z,38.85
2019-04-20T03:37:28.021Z,38.82
2019-04-20T03:38:00.082Z,38.80
2019-04-20T03:38:38.375Z,38.79
2019-04-20T03:39:18.001Z,38.68
2019-04-20T03:39:55.211Z,38.72
2019-04-20T03:40:36.514Z,38.67
2019-04-20T03:41:13.981Z,38.63
2019-04-20T03:41:48.509Z,38.66
2019-04-20T03:42:24.445Z,38.70
2019-04-20T03:43:05.542Z,38.70
2019-04-20T03:43:45.733Z,38.68
2019-04-20T03:44:27.851Z,38.69
2019-04-20T03:45:09.729Z,38.69
2019-04-20T03:45:52.664Z,38.71
2019-04-20T03:46:31.021Z,38.63
2019-04-20T03:47:08.871Z,38.63
2019-04-20T03:47:58.782Z,38.64
2019-04-20T03:48:41.309Z,38.68
2019-04-20T03:49:27.898Z,38.72
2019-04-20T03:50:07.893Z,38.74
2019-04-20T03:50:46.676Z,38.66
2019-04-20T03:51:37.112Z,38.67
2019-04-20T03:52:26.188Z,38.66
2019-04-20T03:53:13.048Z,38.61
2019-04-20T03:54:06.860Z,38.68
2019-04-20T03:54:54.359Z,38.73
2019-04-20T03:55:56.672Z,38.76
2019-04-20T03:56:49.240Z,38.81
2019-04-20T03:57:38.257Z,38.82
2019-04-20T03:58:35.963Z,38.86
2019-04-20T03:59:36.043Z,38.78
2019-04-20T04:00:37.582Z,38.80
2019-04-20T04:02:02.140Z,38.68
2019-04-20T04:02:37.522Z,38.72
2019-04-20T04:03:34.936Z,38.73
2019-04-20T04:04:21.492Z,38.69
2019-04-20T04:05:07.268Z,38.72
2019-04-20T04:06:08.342Z,38.72
2019-04-20T04:06:40.664Z,38.74
2019-04-20T04:07:24.861Z,38.82
2019-04-20T04:08:09.443Z,38.86
2019-04-20T04:08:42.731Z,38.91
2019-04-20T04:09:25.778Z,38.98
2019-04-20T04:10:11.001Z,39.03
2019-04-20T04:10:55.138Z,39.06
2019-04-20T04:11:36.582Z,39.14
2019-04-20T04:12:25.421Z,39.17
2019-04-20T04:13:16.997Z,39.22
2019-04-20T04:13:56.576Z,39.27
2019-04-20T04:14:36.739Z,39.38
2019-04-20T04:15:16.890Z,39.44
2019-04-20T04:16:01.146Z,39.46
2019-04-20T04:16:42.959Z,39.51
2019-04-20T04:17:22.423Z,39.52
2019-04-20T04:17:57.943Z,39.55
2019-04-20T04:18:40.995Z,39.57
2019-04-20T04:19:23.115Z,39.62
2019-04-20T04:20:05.042Z,39.64
2019-04-20T04:20:46.702Z,39.67
2019-04-20T04:21:35.082Z,39.68
2019-04-20T04:22:12.274Z,39.70
2019-04-20T04:23:00.179Z,39.75
2019-04-20T04:23:36.594Z,39.76
2019-04-20T04:24:14.278Z,39.79
2019-04-20T04:24:54.283Z,39.81
2019-04-20T04:25:29.694Z,39.83
2019-04-20T04:26:16.089Z,39.84
2019-04-20T04:26:56.074Z,39.83
2019-04-20T04:27:40.423Z,39.83
2019-04-20T04:28:22.581Z,39.83
2019-04-20T04:29:00.774Z,39.77
2019-04-20T04:29:43.054Z,39.78
2019-04-20T04:30:18.276Z,39.81
2019-04-20T04:31:04.132Z,39.75
2019-04-20T04:31:45.600Z,39.75
2019-04-20T04:32:29.026Z,39.77
2019-04-20T04:33:32.721Z,39.76
2019-04-20T04:33:55.853Z,39.78
2019-04-20T04:34:22.870Z,39.80
2019-04-20T04:35:03.347Z,39.80
2019-04-20T04:35:50.244Z,39.78
2019-04-20T04:36:25.992Z,39.73
2019-04-20T04:37:10.702Z,39.73
2019-04-20T04:37:50.298Z,39.72
2019-04-20T04:38:35.530Z,39.72
2019-04-20T04:39:19.651Z,39.71
2019-04-20T04:39:56.329Z,39.65
2019-04-20T04:40:42.275Z,39.64
2019-04-20T04:41:20.337Z,39.60
2019-04-20T04:42:07.467Z,39.57
2019-04-20T04:42:42.266Z,39.57
2019-04-20T04:43:21.145Z,39.61
2019-04-20T04:43:58.835Z,39.63
2019-04-20T04:44:35.437Z,39.68
2019-04-20T04:45:06.230Z,39.70
2019-04-20T04:45:41.011Z,39.68
2019-04-20T04:46:18.876Z,39.70
2019-04-20T04:47:02.685Z,39.68
2019-04-20T04:47:41.379Z,39.65
2019-04-20T04:48:31.511Z,39.70
2019-04-20T04:49:09.593Z,39.72
2019-04-20T04:49:48.453Z,39.72
2019-04-20T04:50:27.855Z,39.68
2019-04-20T04:51:11.961Z,39.66
2019-04-20T04:51:55.264Z,39.64
2019-04-20T04:52:38.292Z,39.62
2019-04-20T04:53:20.648Z,39.62
2019-04-20T04:53:57.962Z,39.71
2019-04-20T04:54:37.560Z,39.75
2019-04-20T04:55:22.245Z,39.80
2019-04-20T04:55:54.625Z,39.83
2019-04-20T04:56:28.677Z,39.83
2019-04-20T04:57:09.478Z,39.83
2019-04-20T04:57:51.587Z,39.84
2019-04-20T04:58:29.902Z,39.81
2019-04-20T04:59:10.706Z,39.84
2019-04-20T04:59:51.471Z,39.84
2019-04-20T05:00:32.580Z,39.80
2019-04-20T05:01:16.710Z,39.71
2019-04-20T05:01:54.792Z,39.72
2019-04-20T05:02:40.447Z,39.68
2019-04-20T05:03:27.644Z,39.62
2019-04-20T05:04:23.272Z,39.63
2019-04-20T05:05:19.376Z,39.59
2019-04-20T05:06:06.465Z,39.56
2019-04-20T05:06:41.436Z,39.54
2019-04-20T05:07:20.088Z,39.58
2019-04-20T05:08:00.446Z,39.60
2019-04-20T05:08:36.840Z,39.54
2019-04-20T05:09:14.847Z,39.53
2019-04-20T05:09:50.692Z,39.53
2019-04-20T05:10:30.777Z,39.49
2019-04-20T05:11:11.034Z,39.50
2019-04-20T05:11:59.692Z,39.51
2019-04-20T05:12:34.138Z,39.47
2019-04-20T05:13:13.698Z,39.49
2019-04-20T05:13:58.480Z,39.49
2019-04-20T05:14:45.329Z,39.48
2019-04-20T05:15:24.450Z,39.49
2019-04-20T05:16:06.302Z,39.47
2019-04-20T05:16:49.991Z,39.45
2019-04-20T05:17:34.123Z,39.46
2019-04-20T05:18:16.182Z,39.37
2019-04-20T05:19:11.551Z,39.38
2019-04-20T05:19:29.871Z,39.36
2019-04-20T05:20:09.260Z,39.35
2019-04-20T05:20:54.709Z,39.34
2019-04-20T05:21:49.993Z,39.34
2019-04-20T05:22:26.186Z,39.35
2019-04-20T05:23:08.812Z,39.36
2019-04-20T05:23:55.406Z,39.35
2019-04-20T05:24:38.998Z,39.33
2019-04-20T05:25:50.904Z,39.35
2019-04-20T05:26:39.773Z,39.36
2019-04-20T05:27:36.408Z,39.41
2019-04-20T05:28:13.079Z,39.42
2019-04-20T05:28:48.580Z,39.46
2019-04-20T05:29:25.443Z,39.51
2019-04-20T05:30:01.569Z,39.53
2019-04-20T05:30:46.906Z,39.57
2019-04-20T05:31:24.497Z,39.57
2019-04-20T05:32:07.946Z,39.52
2019-04-20T05:32:52.430Z,39.52
2019-04-20T05:33:27.783Z,39.52
2019-04-20T05:34:25.557Z,39.55
2019-04-20T05:35:07.388Z,39.59
2019-04-20T05:35:43.422Z,39.59
2019-04-20T05:36:24.255Z,39.60
2019-04-20T05:37:03.697Z,39.58
2019-04-20T05:37:48.671Z,39.57
2019-04-20T05:38:34.255Z,39.48
2019-04-20T05:39:17.269Z,39.46
2019-04-20T05:39:50.652Z,39.45
2019-04-20T05:40:35.290Z,39.48
2019-04-20T05:41:07.075Z,39.52
2019-04-20T05:41:50.397Z,39.47
2019-04-20T05:42:32.489Z,39.53
2019-04-20T05:43:31.696Z,39.51
2019-04-20T05:44:16.804Z,39.53
2019-04-20T05:45:01.872Z,39.56
2019-04-20T05:45:38.882Z,39.60
2019-04-20T05:46:26.678Z,39.62
2019-04-20T05:47:06.892Z,39.60
2019-04-20T05:47:43.057Z,39.56
2019-04-20T05:48:23.578Z,39.51
2019-04-20T05:49:13.797Z,39.49
2019-04-20T05:49:45.640Z,39.36
2019-04-20T05:50:30.272Z,39.38
2019-04-20T05:51:15.319Z,39.39
2019-04-20T05:51:56.027Z,39.30
2019-04-20T05:52:45.583Z,39.27
2019-04-20T05:53:14.436Z,39.22
2019-04-20T05:53:50.073Z,39.11
2019-04-20T05:54:37.615Z,39.08
2019-04-20T05:55:16.181Z,39.15
2019-04-20T05:55:51.559Z,39.12
2019-04-20T05:56:35.733Z,39.18
2019-04-20T05:57:23.707Z,39.24
2019-04-20T05:58:05.015Z,39.32
2019-04-20T05:58:33.028Z,39.42
2019-04-20T05:59:14.998Z,39.50
2019-04-20T06:00:05.259Z,39.57
2019-04-20T06:00:43.523Z,39.60
2019-04-20T06:01:20.198Z,39.57
2019-04-20T06:01:58.240Z,39.60
2019-04-20T06:02:37.727Z,39.56
2019-04-20T06:03:15.363Z,39.55
2019-04-20T06:03:55.381Z,39.54
2019-04-20T06:04:51.583Z,39.52
2019-04-20T06:05:25.293Z,39.52
2019-04-20T06:06:03.434Z,39.47
2019-04-20T06:06:38.956Z,39.34
2019-04-20T06:07:21.448Z,39.35
2019-04-20T06:08:01.701Z,39.23
2019-04-20T06:08:45.215Z,39.27
2019-04-20T06:09:22.790Z,39.23
2019-04-20T06:10:09.862Z,39.18
2019-04-20T06:10:38.438Z,39.18
2019-04-20T06:11:24.139Z,39.19
2019-04-20T06:12:15.724Z,39.22
2019-04-20T06:12:40.291Z,39.24
2019-04-20T06:13:38.284Z,39.32
2019-04-20T06:14:39.424Z,39.26
2019-04-20T06:15:42.079Z,39.24
2019-04-20T06:16:14.186Z,39.19
2019-04-20T06:17:21.161Z,39.11
2019-04-20T06:18:02.817Z,39.11
2019-04-20T06:18:51.802Z,39.04
2019-04-20T06:19:48.854Z,39.03
2019-04-20T06:20:11.331Z,39.04
2019-04-20T06:21:00.412Z,39.09
2019-04-20T06:21:57.469Z,39.01
2019-04-20T06:22:45.717Z,39.01
2019-04-20T06:23:54.870Z,39.03
2019-04-20T06:24:39.939Z,39.03
2019-04-20T06:25:34.785Z,38.96
2019-04-20T06:26:49.008Z,38.96
2019-04-20T06:27:28.239Z,38.94
2019-04-20T06:28:02.627Z,38.88
2019-04-20T06:28:40.609Z,38.78
2019-04-20T06:29:22.145Z,38.78
2019-04-20T06:30:08.656Z,38.71
2019-04-20T06:30:41.688Z,38.66
2019-04-20T06:31:30.138Z,38.71
2019-04-20T06:32:17.349Z,38.72
2019-04-20T06:33:31.324Z,38.73
2019-04-20T06:34:39.233Z,38.82
2019-04-20T06:35:30.398Z,38.78
2019-04-20T06:36:15.046Z,38.84
2019-04-20T06:36:38.107Z,38.81
2019-04-20T06:37:14.027Z,38.78
2019-04-20T06:38:03.185Z,38.83
2019-04-20T06:39:20.038Z,38.95
2019-04-20T06:40:07.850Z,39.00
2019-04-20T06:40:55.680Z,39.05
2019-04-20T06:41:37.976Z,39.13
2019-04-20T06:42:13.987Z,39.20
2019-04-20T06:42:35.693Z,39.21
2019-04-20T06:43:20.854Z,39.25
2019-04-20T06:44:02.678Z,39.26
2019-04-20T06:44:48.446Z,39.28
2019-04-20T06:45:28.218Z,39.31
2019-04-20T06:46:07.050Z,39.22
2019-04-20T06:46:47.294Z,39.26
2019-04-20T06:47:22.179Z,39.24
2019-04-20T06:47:57.892Z,39.25
2019-04-20T06:49:29.211Z,39.18
2019-04-20T06:50:03.470Z,39.12
2019-04-20T06:50:38.737Z,39.18
2019-04-20T06:51:22.234Z,39.13
2019-04-20T06:52:25.588Z,39.12
2019-04-20T06:53:32.113Z,39.15
2019-04-20T06:53:57.608Z,39.12
2019-04-20T06:55:08.453Z,39.20
2019-04-20T06:56:09.895Z,39.20
2019-04-20T06:56:38.022Z,39.19
2019-04-20T06:57:50.282Z,39.10
2019-04-20T06:59:21.093Z,39.03
2019-04-20T06:59:55.055Z,39.04
2019-04-20T07:00:34.700Z,39.06
2019-04-20T07:01:23.474Z,39.09
2019-04-20T07:02:02.919Z,39.16
2019-04-20T07:02:41.212Z,39.16
2019-04-20T07:03:37.636Z,39.19
2019-04-20T07:04:26.982Z,39.23
2019-04-20T07:04:57.574Z,39.25
2019-04-20T07:05:22.126Z,39.26
2019-04-20T07:06:26.738Z,39.27
2019-04-20T07:06:51.890Z,39.24
2019-04-20T07:07:27.698Z,39.17
2019-04-20T07:08:17.434Z,39.20
2019-04-20T07:08:56.942Z,39.24
2019-04-20T07:09:35.311Z,39.22
2019-04-20T07:10:13.290Z,39.22
2019-04-20T07:10:56.406Z,39.20
2019-04-20T07:11:29.368Z,39.14
2019-04-20T07:12:12.578Z,39.08
2019-04-20T07:12:45.091Z,39.10
2019-04-20T07:13:22.111Z,38.99
2019-04-20T07:13:59.352Z,38.99
2019-04-20T07:14:45.430Z,39.04
2019-04-20T07:15:29.051Z,39.00
2019-04-20T07:16:28.882Z,38.95
2019-04-20T07:17:39.256Z,39.00
2019-04-20T07:18:15.718Z,39.04
2019-04-20T07:19:09.464Z,39.14
2019-04-20T07:19:55.913Z,39.19
2019-04-20T07:21:05.833Z,39.29
2019-04-20T07:22:05.850Z,39.33
2019-04-20T07:22:49.269Z,39.34
2019-04-20T07:23:31.427Z,39.35
2019-04-20T07:24:14.197Z,39.40
2019-04-20T07:24:56.797Z,39.42
2019-04-20T07:25:33.243Z,39.41
2019-04-20T07:26:16.998Z,39.38
2019-04-20T07:26:49.264Z,39.39
2019-04-20T07:27:29.506Z,39.38
2019-04-20T07:28:12.526Z,39.41
2019-04-20T07:28:53.601Z,39.39
2019-04-20T07:29:34.073Z,39.39
2019-04-20T07:30:12.087Z,39.43
2019-04-20T07:30:56.902Z,39.45
2019-04-20T07:31:29.639Z,39.44
2019-04-20T07:32:10.657Z,39.44
2019-04-20T07:32:57.959Z,39.45
2019-04-20T07:33:40.166Z,39.45
2019-04-20T07:34:20.531Z,39.46
2019-04-20T07:35:03.751Z,39.45
2019-04-20T07:35:40.154Z,39.43
2019-04-20T07:36:24.372Z,39.41
2019-04-20T07:37:29.913Z,39.45
2019-04-20T07:38:08.871Z,39.40
2019-04-20T07:38:34.314Z,39.32
2019-04-20T07:39:14.213Z,39.24
2019-04-20T07:39:53.854Z,39.23
2019-04-20T07:40:32.546Z,39.24
2019-04-20T07:41:17.555Z,39.23
2019-04-20T07:41:56.948Z,39.27
2019-04-20T07:42:45.083Z,39.30
2019-04-20T07:43:09.187Z,39.31
2019-04-20T07:44:04.645Z,39.25
2019-04-20T07:44:44.262Z,39.24
2019-04-20T07:45:24.501Z,39.19
2019-04-20T07:45:56.882Z,39.20
2019-04-20T07:46:47.247Z,39.21
2019-04-20T07:47:27.602Z,39.14
2019-04-20T07:48:01.683Z,39.10
2019-04-20T07:48:36.910Z,39.06
2019-04-20T07:49:18.379Z,39.05
2019-04-20T07:49:55.601Z,39.09
2019-04-20T07:50:35.178Z,39.05
2019-04-20T07:51:10.310Z,39.04
2019-04-20T07:51:44.371Z,38.99
2019-04-20T07:52:33.911Z,38.88
2019-04-20T07:53:18.581Z,38.90
2019-04-20T07:54:10.678Z,38.80
2019-04-20T07:54:46.934Z,38.81
2019-04-20T07:56:17.785Z,38.68
2019-04-20T07:56:42.464Z,38.66
2019-04-20T07:57:19.445Z,38.69
2019-04-20T07:57:53.677Z,38.67
2019-04-20T07:58:31.677Z,38.66
2019-04-20T07:59:13.968Z,38.59
2019-04-20T08:00:00.359Z,38.64
2019-04-20T08:00:55.060Z,38.60
2019-04-20T08:01:47.917Z,38.64
2019-04-20T08:02:42.636Z,38.67
2019-04-20T08:03:33.574Z,38.66
2019-04-20T08:04:18.614Z,38.61
2019-04-20T08:05:06.013Z,38.60
2019-04-20T08:05:44.278Z,38.57
2019-04-20T08:06:35.352Z,38.49
2019-04-20T08:07:09.561Z,38.47
2019-04-20T08:07:57.248Z,38.45
2019-04-20T08:08:43.800Z,38.47
2019-04-20T08:09:22.004Z,38.45
2019-04-20T08:09:57.361Z,38.46
2019-04-20T08:10:51.077Z,38.38
2019-04-20T08:11:32.099Z,38.39
2019-04-20T08:12:18.580Z,38.39
2019-04-20T08:13:02.324Z,38.40
2019-04-20T08:13:45.591Z,38.36
2019-04-20T08:14:28.577Z,38.26
2019-04-20T08:15:03.793Z,38.27
2019-04-20T08:15:58.367Z,38.21
2019-04-20T08:16:29.642Z,38.21
2019-04-20T08:17:14.418Z,38.18
2019-04-20T08:17:50.956Z,38.22
2019-04-20T08:18:27.744Z,38.24
2019-04-20T08:19:19.942Z,38.25
2019-04-20T08:19:45.681Z,38.23
2019-04-20T08:20:21.752Z,38.22
2019-04-20T08:21:02.746Z,38.26
2019-04-20T08:21:48.560Z,38.28
2019-04-20T08:22:26.767Z,38.31
2019-04-20T08:23:05.115Z,38.32
2019-04-20T08:23:44.220Z,38.34
2019-04-20T08:24:21.553Z,38.34
2019-04-20T08:25:02.007Z,38.39
2019-04-20T08:25:38.819Z,38.41
2019-04-20T08:26:13.983Z,38.45
2019-04-20T08:26:53.061Z,38.49
2019-04-20T08:27:46.650Z,38.51
2019-04-20T08:28:42.320Z,38.51
2019-04-20T08:29:36.635Z,38.46
2019-04-20T08:30:23.028Z,38.50
2019-04-20T08:31:17.903Z,38.44
2019-04-20T08:32:13.023Z,38.38
2019-04-20T08:32:58.570Z,38.33
2019-04-20T08:34:04.428Z,38.32
2019-04-20T08:34:39.230Z,38.30
2019-04-20T08:35:23.158Z,38.28
2019-04-20T08:35:58.456Z,38.30
2019-04-20T08:36:39.158Z,38.31
2019-04-20T08:37:11.988Z,38.33
2019-04-20T08:38:14.577Z,38.35
2019-04-20T08:39:00.191Z,38.37
2019-04-20T08:40:01.426Z,38.30
2019-04-20T08:40:37.298Z,38.33
2019-04-20T08:41:19.407Z,38.30
2019-04-20T08:42:00.205Z,38.32
2019-04-20T08:42:51.144Z,38.33
2019-04-20T08:43:32.686Z,38.30
2019-04-20T08:44:04.752Z,38.23
2019-04-20T08:44:58.554Z,38.20
2019-04-20T08:45:23.627Z,38.17
2019-04-20T08:46:00.554Z,37.92
2019-04-20T08:46:53.506Z,37.88
2019-04-20T08:47:32.291Z,37.82
2019-04-20T08:48:11.110Z,37.71
2019-04-20T08:48:46.919Z,37.45
2019-04-20T08:49:29.674Z,37.33
2019-04-20T08:50:22.467Z,37.25
2019-04-20T08:51:03.391Z,37.27
2019-04-20T08:51:49.997Z,37.23
2019-04-20T08:52:46.894Z,37.24
2019-04-20T08:53:42.088Z,37.13
2019-04-20T08:54:21.983Z,37.02
2019-04-20T08:55:07.725Z,36.90
2019-04-20T08:55:44.160Z,36.90
2019-04-20T08:56:18.514Z,36.95
2019-04-20T08:56:53.636Z,36.91
2019-04-20T08:57:27.213Z,36.80
2019-04-20T08:58:09.274Z,36.79
2019-04-20T08:58:48.341Z,36.79
2019-04-20T08:59:26.677Z,36.79
2019-04-20T09:00:06.858Z,36.62
2019-04-20T09:00:50.157Z,36.49
2019-04-20T09:01:29.084Z,36.46
2019-04-20T09:02:10.309Z,36.43
2019-04-20T09:02:48.919Z,36.44
2019-04-20T09:03:32.633Z,36.46
2019-04-20T09:04:15.404Z,36.42
2019-04-20T09:04:58.253Z,36.42
2019-04-20T09:05:42.424Z,36.39
2019-04-20T09:06:26.318Z,36.42
2019-04-20T09:07:04.050Z,36.38
2019-04-20T09:07:46.929Z,36.38
2019-04-20T09:08:23.568Z,36.34
2019-04-20T09:09:11.799Z,36.31
2019-04-20T09:09:56.379Z,36.29
2019-04-20T09:10:40.810Z,36.24
2019-04-20T09:11:12.430Z,36.24
2019-04-20T09:11:54.275Z,36.24
2019-04-20T09:12:36.853Z,36.25
2019-04-20T09:13:08.358Z,36.25
2019-04-20T09:13:43.221Z,36.24
2019-04-20T09:14:23.526Z,36.25
2019-04-20T09:15:06.020Z,36.25
2019-04-20T09:15:44.708Z,36.23
2019-04-20T09:16:31.814Z,36.17
2019-04-20T09:17:23.049Z,36.19
2019-04-20T09:18:20.805Z,36.15
2019-04-20T09:18:56.444Z,36.17
2019-04-20T09:19:41.750Z,36.16
2019-04-20T09:20:27.009Z,36.16
2019-04-20T09:21:01.129Z,36.14
2019-04-20T09:21:46.166Z,36.03
2019-04-20T09:22:44.402Z,36.03
2019-04-20T09:23:35.398Z,35.96
2019-04-20T09:24:19.747Z,35.96
2019-04-20T09:25:01.850Z,35.95
2019-04-20T09:26:16.305Z,35.98